Time;durP1;ratioP1;P1;durP2;ratioP2;P2;SDS_P1;SDS_P2;PMS_P1;PMS_P2;Temp;Humidity;BMP_temperature;BMP_pressure;BME280_temperature;BME280_humidity;BME280_pressure;Samples;Min_cycle;Max_cycle;Signal;HPM_P1;HPM_P2
2021/05/01 00:02:10;;;;;;;35.13;21.80;;;6.70;99.90;;;;;;5010681;28;20463;-76
2021/05/01 00:04:38;;;;;;;32.75;21.33;;;6.60;99.90;;;;;;5009966;28;20475;-75
2021/05/01 00:07:05;;;;;;;36.80;23.67;;;6.60;99.90;;;;;;5010285;28;20548;-75
2021/05/01 00:09:33;;;;;;;33.20;24.33;;;6.60;99.90;;;;;;5011446;28;20391;-75
2021/05/01 00:12:01;;;;;;;29.58;22.40;;;6.60;99.90;;;;;;5009893;28;20049;-75
2021/05/01 00:14:28;;;;;;;32.40;23.38;;;6.60;99.90;;;;;;5010705;28;20427;-75
2021/05/01 00:16:56;;;;;;;35.67;25.88;;;6.60;99.90;;;;;;5010605;28;20051;-76
2021/05/01 00:19:23;;;;;;;32.65;23.55;;;6.70;99.90;;;;;;5005652;28;20038;-76
2021/05/01 00:21:51;;;;;;;35.58;23.50;;;6.60;99.90;;;;;;4991062;28;20054;-75
2021/05/01 00:24:18;;;;;;;29.10;23.85;;;6.70;99.90;;;;;;4990990;28;20047;-75
2021/05/01 00:26:45;;;;;;;32.75;23.85;;;6.70;99.90;;;;;;4989483;28;20488;-75
2021/05/01 00:29:13;;;;;;;36.45;21.75;;;6.70;99.90;;;;;;4991453;28;20065;-75
2021/05/01 00:31:40;;;;;;;31.38;22.08;;;6.60;99.90;;;;;;4990470;28;20057;-75
2021/05/01 00:34:14;;;;;;;31.80;23.42;;;6.70;99.90;;;;;;4990195;28;20515;-75
2021/05/01 00:36:41;;;;;;;31.80;22.83;;;6.70;99.90;;;;;;5008571;28;20054;-75
2021/05/01 00:39:13;;;;;;;30.70;20.77;;;6.70;99.90;;;;;;5012432;28;20534;-83
2021/05/01 00:41:41;;;;;;;36.30;25.00;;;6.70;99.90;;;;;;5012591;28;20065;-83
2021/05/01 00:44:09;;;;;;;35.72;24.27;;;6.70;99.90;;;;;;5013834;28;20050;-83
2021/05/01 00:46:46;;;;;;;31.85;22.08;;;6.70;99.90;;;;;;5013853;28;20053;-83
2021/05/01 00:49:14;;;;;;;34.03;23.10;;;6.70;99.90;;;;;;5014310;28;20050;-83
2021/05/01 03:48:18;;;;;;;;;;;;;;;;;;;;;
2021/05/01 04:03:05;;;;;;;31.65;22.70;;;6.70;99.90;;;;;;4933809;29;20066;-85
2021/05/01 04:06:55;;;;;;;31.80;22.23;;;6.60;99.90;;;;;;4901782;29;20033;-85
2021/05/01 04:10:37;;;;;;;36.35;23.65;;;6.70;99.90;;;;;;4937464;28;20054;-76
2021/05/01 04:13:05;;;;;;;35.17;23.02;;;6.70;99.90;;;;;;4988818;28;20050;-75
2021/05/01 04:15:32;;;;;;;30.27;23.08;;;6.70;99.90;;;;;;4992024;28;20609;-75
2021/05/01 04:17:59;;;;;;;35.75;21.73;;;6.70;99.90;;;;;;4992607;28;20054;-75
2021/05/01 04:20:27;;;;;;;33.67;24.60;;;6.70;99.90;;;;;;4991024;28;20042;-75
2021/05/01 04:22:54;;;;;;;36.38;25.05;;;6.80;99.90;;;;;;4992534;28;20428;-75
2021/05/01 04:25:22;;;;;;;32.35;21.60;;;6.80;99.90;;;;;;5016676;28;20060;-76
2021/05/01 04:27:49;;;;;;;38.03;25.52;;;6.70;99.90;;;;;;5047040;28;20048;-76
2021/05/01 04:30:17;;;;;;;39.10;26.02;;;6.80;99.90;;;;;;5035534;28;20049;-75
2021/05/01 04:32:44;;;;;;;38.17;25.20;;;6.80;99.90;;;;;;5054142;28;20064;-75
2021/05/01 04:35:12;;;;;;;40.90;28.45;;;6.70;99.90;;;;;;5058950;28;20052;-75
2021/05/01 04:37:39;;;;;;;37.05;24.63;;;6.80;99.90;;;;;;5074005;28;20072;-75
2021/05/01 04:40:07;;;;;;;42.55;27.13;;;6.70;99.90;;;;;;5073079;28;20037;-76
2021/05/01 04:42:36;;;;;;;41.53;27.77;;;6.70;99.90;;;;;;5073312;28;20047;-86
2021/05/01 04:45:04;;;;;;;41.30;27.13;;;6.70;99.90;;;;;;5073623;28;20059;-85
2021/05/01 04:47:32;;;;;;;42.85;28.67;;;6.70;99.90;;;;;;5072739;28;20060;-86
2021/05/01 04:50:00;;;;;;;57.75;28.48;;;6.70;99.90;;;;;;5055535;28;20060;-85
2021/05/01 04:52:28;;;;;;;44.10;27.85;;;6.70;99.90;;;;;;5055977;28;20037;-86
2021/05/01 04:54:55;;;;;;;45.70;28.90;;;6.70;99.90;;;;;;5073854;28;20049;-85
2021/05/01 04:57:23;;;;;;;43.67;26.05;;;6.60;99.90;;;;;;5066789;28;20413;-86
2021/05/01 04:59:50;;;;;;;37.72;27.13;;;6.70;99.90;;;;;;5035366;28;20497;-86
2021/05/01 05:02:18;;;;;;;45.47;29.85;;;6.70;99.90;;;;;;5052488;28;20053;-86
2021/05/01 05:04:46;;;;;;;44.47;26.48;;;6.80;99.90;;;;;;5052963;28;20049;-86
2021/05/01 05:07:13;;;;;;;46.92;27.77;;;6.70;99.90;;;;;;5052326;28;20036;-85
2021/05/01 05:09:41;;;;;;;41.42;29.80;;;6.70;99.90;;;;;;5053472;28;20072;-86
2021/05/01 05:12:08;;;;;;;46.80;29.10;;;6.70;99.90;;;;;;5071912;28;20048;-86
2021/05/01 05:14:36;;;;;;;47.88;30.48;;;6.70;99.90;;;;;;5072424;28;20045;-86
2021/05/01 05:17:03;;;;;;;48.22;32.95;;;6.70;99.90;;;;;;5055726;28;20063;-85
2021/05/01 05:19:32;;;;;;;45.75;31.42;;;6.80;99.90;;;;;;5054137;28;20089;-86
2021/05/01 05:21:59;;;;;;;43.55;27.50;;;6.80;99.90;;;;;;5072670;28;20056;-86
2021/05/01 05:24:27;;;;;;;43.30;30.00;;;6.80;99.90;;;;;;5021918;28;20057;-86
2021/05/01 05:26:54;;;;;;;43.97;29.25;;;6.80;99.90;;;;;;5054929;28;20041;-86
2021/05/01 05:29:21;;;;;;;42.75;28.08;;;6.80;99.90;;;;;;5073011;28;20473;-86
2021/05/01 05:31:49;;;;;;;44.55;33.67;;;6.80;99.90;;;;;;5072634;28;20036;-85
2021/05/01 05:34:17;;;;;;;45.55;31.40;;;6.80;99.90;;;;;;5072697;28;20055;-85
2021/05/01 05:36:44;;;;;;;41.67;29.10;;;6.90;99.90;;;;;;5055833;28;20506;-85
2021/05/01 05:39:12;;;;;;;40.55;28.73;;;7.00;99.90;;;;;;5072272;28;20119;-85
2021/05/01 05:41:39;;;;;;;48.33;26.83;;;7.20;99.90;;;;;;5054962;28;20047;-86
2021/05/01 05:44:07;;;;;;;42.40;27.02;;;7.40;99.90;;;;;;5071678;28;20119;-86
2021/05/01 05:46:34;;;;;;;42.35;31.02;;;7.60;99.90;;;;;;5037363;28;20045;-86
2021/05/01 05:49:05;;;;;;;36.05;24.10;;;7.90;99.90;;;;;;5055585;28;20048;-86
2021/05/01 05:51:35;;;;;;;36.70;25.45;;;8.10;99.90;;;;;;5071669;28;20048;-86
2021/05/01 05:54:04;;;;;;;47.67;27.33;;;8.30;99.90;;;;;;5038273;28;20084;-86
2021/05/01 05:56:34;;;;;;;34.45;24.92;;;8.60;99.90;;;;;;5071559;28;20052;-86
2021/05/01 05:59:02;;;;;;;44.70;29.33;;;9.00;99.90;;;;;;5054346;28;20051;-86
2021/05/01 06:01:31;;;;;;;30.33;23.60;;;9.80;99.90;;;;;;5071593;28;20060;-87
2021/05/01 06:04:00;;;;;;;31.30;22.98;;;10.50;99.90;;;;;;5071493;28;20398;-87
2021/05/01 06:06:33;;;;;;;32.45;22.55;;;11.30;99.90;;;;;;5071556;28;20375;-86
2021/05/01 06:09:02;;;;;;;27.75;21.08;;;11.60;98.40;;;;;;5071742;28;20848;-87
2021/05/01 06:11:30;;;;;;;29.88;21.92;;;11.30;97.90;;;;;;5071125;28;20448;-87
2021/05/01 06:14:03;;;;;;;26.58;19.17;;;11.70;98.20;;;;;;5071363;28;20049;-87
2021/05/01 06:16:31;;;;;;;26.30;18.42;;;11.80;98.60;;;;;;5070889;28;20047;-87
2021/05/01 06:18:59;;;;;;;24.67;17.90;;;11.80;97.90;;;;;;5069703;28;20464;-87
2021/05/01 06:21:35;;;;;;;25.52;18.55;;;12.10;97.60;;;;;;5051785;28;20049;-87
2021/05/01 06:24:08;;;;;;;25.55;17.52;;;12.00;97.00;;;;;;5050466;28;20045;-87
2021/05/01 06:26:38;;;;;;;22.75;15.75;;;11.10;99.10;;;;;;5050432;28;20048;-87
2021/05/01 06:29:15;;;;;;;19.23;14.40;;;10.70;99.80;;;;;;5049989;28;20076;-86
2021/05/01 06:31:42;;;;;;;16.05;10.48;;;10.70;99.20;;;;;;5050349;28;20049;-87
2021/05/01 06:34:11;;;;;;;16.95;12.55;;;10.50;97.50;;;;;;5051248;28;20059;-86
2021/05/01 06:36:46;;;;;;;17.95;14.23;;;10.40;99.00;;;;;;5049364;28;20048;-86
2021/05/01 06:39:22;;;;;;;19.67;13.90;;;10.70;98.80;;;;;;5070312;28;20045;-86
2021/05/01 06:42:04;;;;;;;16.10;12.65;;;11.80;97.50;;;;;;5070472;28;20053;-86
2021/05/01 06:44:52;;;;;;;14.65;12.02;;;12.20;95.40;;;;;;5053030;28;20052;-86
2021/05/01 06:47:31;;;;;;;13.45;10.50;;;12.70;94.30;;;;;;5065706;28;20409;-76
2021/05/01 06:50:02;;;;;;;16.98;11.68;;;13.70;90.10;;;;;;5071551;28;20063;-76
2021/05/01 06:52:31;;;;;;;13.50;10.80;;;13.00;92.00;;;;;;5071107;28;20405;-76
2021/05/01 06:55:01;;;;;;;13.52;9.40;;;12.90;93.40;;;;;;5071104;28;20275;-76
2021/05/01 06:57:30;;;;;;;12.63;9.25;;;12.40;94.20;;;;;;5063317;28;20057;-76
2021/05/01 06:59:59;;;;;;;12.32;9.25;;;11.60;95.30;;;;;;5050618;28;20045;-76
2021/05/01 07:02:32;;;;;;;12.30;8.98;;;11.20;96.70;;;;;;5049532;28;20478;-77
2021/05/01 07:05:00;;;;;;;13.07;10.38;;;11.30;96.40;;;;;;5051042;28;20083;-77
2021/05/01 07:07:29;;;;;;;15.00;10.27;;;11.50;97.00;;;;;;5050461;28;20055;-78
2021/05/01 07:10:03;;;;;;;14.45;11.50;;;11.90;96.80;;;;;;5051816;28;20053;-74
2021/05/01 07:12:32;;;;;;;12.27;10.60;;;11.80;96.30;;;;;;5069832;28;20052;-74
2021/05/01 07:15:11;;;;;;;10.23;7.90;;;11.70;96.10;;;;;;5070261;28;20477;-74
2021/05/01 07:17:40;;;;;;;10.68;8.27;;;11.80;96.10;;;;;;5069222;28;20049;-75
2021/05/01 07:20:10;;;;;;;7.63;6.43;;;12.50;96.10;;;;;;5069409;28;20053;-74
2021/05/01 07:22:37;;;;;;;8.32;6.40;;;13.40;93.30;;;;;;5070146;28;20063;-74
2021/05/01 07:25:08;;;;;;;10.48;8.05;;;14.40;91.20;;;;;;5070012;28;20048;-75
2021/05/01 07:27:59;;;;;;;8.43;6.47;;;14.70;90.30;;;;;;5070302;28;20048;-74
2021/05/01 07:30:28;;;;;;;7.40;5.88;;;15.40;88.10;;;;;;5070132;28;20057;-74
2021/05/01 07:33:15;;;;;;;16.90;9.55;;;15.60;89.00;;;;;;5059150;28;20041;-73
2021/05/01 07:35:46;;;;;;;12.85;9.55;;;15.60;90.00;;;;;;5059469;28;20413;-74
2021/05/01 07:38:14;;;;;;;;;;;14.40;91.10;;;;;;5069922;28;20425;-73
2021/05/01 07:40:42;;;;;;;11.15;9.25;;;13.10;94.90;;;;;;5069294;28;19935;-74
2021/05/01 07:43:16;;;;;;;13.43;9.68;;;13.10;94.30;;;;;;5069208;28;20075;-74
2021/05/01 07:45:47;;;;;;;13.73;9.48;;;13.90;93.70;;;;;;5070528;28;20394;-74
2021/05/01 07:48:15;;;;;;;12.20;10.20;;;13.80;93.00;;;;;;5070167;28;20418;-73
2021/05/01 07:50:43;;;;;;;15.45;10.73;;;13.90;92.20;;;;;;5069746;28;20041;-73
2021/05/01 07:53:11;;;;;;;14.70;10.68;;;13.70;93.10;;;;;;5070961;28;20505;-73
2021/05/01 07:55:40;;;;;;;14.27;10.95;;;13.10;95.40;;;;;;5070178;28;20053;-74
2021/05/01 07:58:08;;;;;;;11.50;9.18;;;13.50;94.70;;;;;;5070555;28;20063;-74
2021/05/01 08:00:35;;;;;;;13.85;10.23;;;14.00;92.50;;;;;;5069762;28;20049;-74
2021/05/01 08:03:04;;;;;;;12.68;8.40;;;15.00;91.60;;;;;;5050756;28;20524;-74
2021/05/01 08:05:32;;;;;;;8.52;6.93;;;15.40;90.80;;;;;;5069396;28;20048;-74
2021/05/01 08:07:59;;;;;;;11.85;9.32;;;15.50;87.80;;;;;;5047644;28;20068;-74
2021/05/01 08:10:27;;;;;;;12.80;8.98;;;16.10;88.00;;;;;;5069082;28;20059;-77
2021/05/01 08:12:55;;;;;;;8.55;7.65;;;16.50;86.90;;;;;;5035799;28;20075;-83
2021/05/01 08:15:22;;;;;;;9.55;6.65;;;15.60;88.20;;;;;;5051647;28;20048;-83
2021/05/01 08:17:49;;;;;;;9.82;6.68;;;15.30;86.30;;;;;;5035410;28;20060;-74
2021/05/01 08:20:17;;;;;;;8.90;6.15;;;14.40;89.50;;;;;;5057425;28;20494;-74
2021/05/01 08:22:45;;;;;;;7.57;5.75;;;14.50;89.70;;;;;;5049774;28;20513;-73
2021/05/01 08:25:13;;;;;;;8.75;5.95;;;13.90;90.10;;;;;;5055428;28;20501;-73
2021/05/01 08:27:41;;;;;;;6.82;5.25;;;13.90;91.50;;;;;;5069618;28;20431;-74
2021/05/01 08:30:15;;;;;;;7.90;5.25;;;15.20;87.60;;;;;;5069167;28;20059;-74
2021/05/01 08:32:46;;;;;;;5.15;4.65;;;17.20;82.00;;;;;;5068693;28;20041;-74
2021/05/01 08:35:16;;;;;;;8.15;7.05;;;17.10;77.90;;;;;;5069297;28;20045;-73
2021/05/01 08:37:45;;;;;;;7.55;5.63;;;16.10;85.40;;;;;;5069873;28;20599;-73
2021/05/01 08:40:13;;;;;;;8.25;5.03;;;15.00;87.20;;;;;;5069244;28;20490;-73
2021/05/01 08:42:48;;;;;;;9.45;6.03;;;14.10;90.40;;;;;;5051403;28;20055;-74
2021/05/01 08:45:27;;;;;;;9.27;7.28;;;13.50;91.70;;;;;;5068396;28;20055;-74
2021/05/01 08:47:55;;;;;;;7.85;6.85;;;13.00;92.50;;;;;;5068433;28;20494;-73
2021/05/01 08:50:32;;;;;;;8.43;6.63;;;12.50;93.60;;;;;;5051080;28;20048;-73
2021/05/01 08:53:04;;;;;;;8.52;6.30;;;12.50;94.60;;;;;;5070191;28;20052;-74
2021/05/01 08:55:34;;;;;;;7.05;5.63;;;12.40;94.60;;;;;;5069193;28;20048;-72
2021/05/01 08:58:04;;;;;;;6.25;4.68;;;12.30;93.80;;;;;;5057259;28;20068;-74
2021/05/01 09:00:32;;;;;;;6.15;5.30;;;12.10;94.80;;;;;;5034150;28;20044;-73
2021/05/01 09:03:04;;;;;;;5.68;4.80;;;12.10;94.50;;;;;;5045033;28;20044;-75
2021/05/01 09:05:33;;;;;;;8.20;6.70;;;12.30;94.00;;;;;;5073162;28;20049;-75
2021/05/01 09:08:05;;;;;;;6.45;5.78;;;12.50;94.70;;;;;;5072841;28;20045;-80
2021/05/01 09:10:49;;;;;;;4.53;4.00;;;12.40;94.20;;;;;;5069863;28;20070;-78
2021/05/01 09:13:23;;;;;;;7.70;6.20;;;12.20;94.40;;;;;;5069785;28;20134;-78
2021/05/01 09:16:11;;;;;;;8.48;7.65;;;12.10;94.50;;;;;;5069971;28;20071;-77
2021/05/01 09:18:51;;;;;;;5.10;4.22;;;12.10;94.20;;;;;;5071916;28;20044;-77
2021/05/01 09:21:30;;;;;;;9.88;6.63;;;12.20;94.00;;;;;;5072068;28;20068;-77
2021/05/01 09:24:01;;;;;;;7.43;5.75;;;12.20;94.80;;;;;;5072749;28;20166;-86
2021/05/01 09:26:42;;;;;;;8.63;7.00;;;12.20;94.00;;;;;;5071811;28;20078;-77
2021/05/01 09:29:28;;;;;;;9.90;6.70;;;12.10;94.60;;;;;;5073159;28;20048;-77
2021/05/01 09:31:56;;;;;;;10.55;7.65;;;12.00;94.80;;;;;;5071745;28;20484;-77
2021/05/01 09:34:44;;;;;;;15.02;8.45;;;11.90;96.00;;;;;;5072178;28;20064;-76
2021/05/01 09:37:12;;;;;;;10.85;8.38;;;11.80;96.10;;;;;;5059782;28;20061;-77
2021/05/01 09:39:54;;;;;;;10.07;7.60;;;11.60;95.90;;;;;;5072114;28;20044;-78
2021/05/01 09:42:23;;;;;;;11.48;9.15;;;11.50;96.90;;;;;;5071917;28;20067;-77
2021/05/01 09:45:18;;;;;;;12.25;9.93;;;11.60;97.40;;;;;;5072669;28;20469;-78
2021/05/01 09:47:50;;;;;;;10.52;9.20;;;11.70;97.40;;;;;;5051714;28;20049;-77
2021/05/01 09:50:26;;;;;;;13.25;9.30;;;11.60;96.40;;;;;;5051747;28;20060;-77
2021/05/01 09:53:27;;;;;;;10.77;9.23;;;11.60;97.10;;;;;;5057317;28;20059;-77
2021/05/01 09:55:59;;;;;;;15.18;10.15;;;11.80;96.40;;;;;;5052738;28;20056;-78
2021/05/01 09:58:31;;;;;;;9.23;7.65;;;11.90;96.00;;;;;;5071680;28;20060;-77
2021/05/01 10:01:17;;;;;;;10.35;9.13;;;12.00;95.40;;;;;;5071666;28;20048;-77
2021/05/01 10:03:45;;;;;;;12.18;9.32;;;12.30;95.30;;;;;;5071688;28;20040;-78
2021/05/01 10:06:16;;;;;;;11.45;9.30;;;12.30;95.40;;;;;;5072011;28;20057;-78
2021/05/01 10:08:53;;;;;;;11.63;9.25;;;12.00;95.10;;;;;;5071909;28;20071;-79
2021/05/01 10:11:27;;;;;;;11.93;9.70;;;11.90;96.20;;;;;;5071313;28;20420;-78
2021/05/01 10:13:55;;;;;;;9.38;8.27;;;11.90;95.30;;;;;;5072378;28;20056;-78
2021/05/01 10:16:24;;;;;;;11.02;7.32;;;12.10;96.30;;;;;;5071143;28;20055;-79
2021/05/01 10:19:12;;;;;;;12.05;8.93;;;12.20;95.70;;;;;;5071287;28;20049;-77
2021/05/01 10:21:47;;;;;;;11.70;9.77;;;12.20;95.20;;;;;;5072099;28;20504;-78
2021/05/01 10:24:15;;;;;;;11.68;8.60;;;12.10;95.60;;;;;;5071554;28;20529;-77
2021/05/01 10:26:50;;;;;;;11.35;9.68;;;12.00;96.00;;;;;;5071111;28;20040;-77
2021/05/01 10:29:35;;;;;;;11.73;8.95;;;12.10;95.30;;;;;;5071913;28;20052;-77
2021/05/01 10:32:14;;;;;;;9.63;8.55;;;12.10;95.90;;;;;;5070485;28;20037;-78
2021/05/01 10:34:47;;;;;;;11.80;10.50;;;12.00;95.50;;;;;;5070234;28;20045;-77
2021/05/01 10:37:16;;;;;;;12.25;8.88;;;11.90;95.20;;;;;;5071866;28;20059;-78
2021/05/01 10:39:44;;;;;;;13.30;10.73;;;11.90;96.20;;;;;;5071260;28;20048;-78
2021/05/01 10:42:14;;;;;;;10.02;7.97;;;12.00;95.30;;;;;;5070852;28;20055;-78
2021/05/01 10:44:58;;;;;;;18.38;10.45;;;11.90;95.30;;;;;;5070455;28;20059;-78
2021/05/01 10:47:26;;;;;;;12.85;9.60;;;12.10;95.90;;;;;;5070801;28;20675;-78
2021/05/01 10:50:37;;;;;;;16.92;9.32;;;12.20;95.10;;;;;;5070293;28;20426;-77
2021/05/01 10:53:06;;;;;;;10.60;9.45;;;12.30;94.40;;;;;;5032175;28;20059;-77
2021/05/01 10:55:48;;;;;;;11.65;7.45;;;12.20;94.60;;;;;;5071128;28;20401;-77
2021/05/01 10:58:38;;;;;;;10.82;9.40;;;12.30;94.60;;;;;;5049754;28;20049;-77
2021/05/01 11:01:32;;;;;;;11.02;9.52;;;12.50;94.50;;;;;;5050920;28;20072;-77
2021/05/01 11:04:03;;;;;;;9.55;8.52;;;12.80;94.70;;;;;;5040859;28;20044;-77
2021/05/01 11:06:43;;;;;;;12.13;9.63;;;13.00;93.60;;;;;;5051014;28;20060;-77
2021/05/01 11:09:12;;;;;;;9.30;8.32;;;12.90;93.70;;;;;;5033728;28;20052;-77
2021/05/01 11:11:42;;;;;;;13.20;10.15;;;12.80;94.70;;;;;;5049752;28;20045;-77
2021/05/01 11:14:14;;;;;;;13.23;10.38;;;12.80;94.20;;;;;;5051189;28;20056;-77
2021/05/01 11:16:51;;;;;;;11.80;9.75;;;12.60;94.80;;;;;;5060907;28;20493;-75
2021/05/01 11:19:21;;;;;;;12.65;9.60;;;12.30;94.20;;;;;;5070245;28;20051;-76
2021/05/01 11:21:49;;;;;;;10.88;9.48;;;12.10;94.50;;;;;;5070232;28;20048;-77
2021/05/01 11:24:16;;;;;;;11.50;9.60;;;12.00;96.30;;;;;;5070210;28;20040;-77
2021/05/01 11:26:47;;;;;;;14.95;10.43;;;12.10;95.40;;;;;;5069970;28;20504;-77
2021/05/01 11:29:16;;;;;;;13.50;11.30;;;12.10;95.60;;;;;;5070760;28;20409;-77
2021/05/01 11:31:46;;;;;;;14.80;10.05;;;12.20;96.80;;;;;;5069556;28;20048;-77
2021/05/01 11:34:15;;;;;;;11.90;10.07;;;12.40;95.70;;;;;;5050081;28;20061;-74
2021/05/01 11:36:46;;;;;;;13.38;9.80;;;12.40;95.10;;;;;;5068425;28;20044;-76
2021/05/01 11:39:16;;;;;;;13.23;11.15;;;12.40;96.40;;;;;;5070361;28;20049;-74
2021/05/01 11:41:46;;;;;;;11.45;8.57;;;12.50;96.40;;;;;;5070382;28;20393;-74
2021/05/01 11:44:15;;;;;;;12.80;11.43;;;12.60;96.20;;;;;;5070262;28;20045;-74
2021/05/01 11:46:49;;;;;;;13.07;9.73;;;12.70;95.50;;;;;;5069957;28;20393;-75
2021/05/01 11:49:22;;;;;;;11.93;9.27;;;12.60;95.10;;;;;;5070361;28;20055;-76
2021/05/01 11:52:27;;;;;;;11.68;10.45;;;12.70;94.70;;;;;;5069840;28;20036;-75
2021/05/01 11:55:18;;;;;;;12.57;9.60;;;12.70;95.10;;;;;;5070251;28;20033;-76
2021/05/01 11:57:56;;;;;;;13.13;9.23;;;12.80;95.50;;;;;;5070450;28;20052;-75
2021/05/01 12:00:32;;;;;;;15.35;9.25;;;12.80;95.80;;;;;;5052087;28;20052;-75
2021/05/01 12:03:01;;;;;;;14.10;10.65;;;12.70;95.10;;;;;;5069946;28;20482;-75
2021/05/01 12:05:34;;;;;;;10.55;9.45;;;12.60;95.80;;;;;;5070481;28;20048;-75
2021/05/01 12:08:16;;;;;;;12.13;9.65;;;12.60;95.60;;;;;;5069808;28;20456;-76
2021/05/01 12:10:47;;;;;;;13.07;11.73;;;12.40;95.20;;;;;;5069823;28;20052;-75
2021/05/01 12:13:30;;;;;;;12.48;9.82;;;12.40;95.60;;;;;;5070444;28;20061;-75
2021/05/01 12:15:59;;;;;;;14.10;10.70;;;12.30;95.70;;;;;;5068139;28;20041;-76
2021/05/01 12:18:53;;;;;;;12.50;10.88;;;12.30;96.20;;;;;;5069346;28;20048;-76
2021/05/01 12:21:40;;;;;;;10.95;9.35;;;12.30;96.10;;;;;;5034181;28;20047;-76
2021/05/01 12:24:24;;;;;;;15.27;10.35;;;12.30;95.50;;;;;;5046380;28;20037;-75
2021/05/01 12:26:53;;;;;;;11.63;9.40;;;12.30;96.40;;;;;;5068543;28;20044;-76
2021/05/01 12:29:27;;;;;;;10.98;9.57;;;12.40;96.10;;;;;;5052690;28;20563;-76
2021/05/01 12:32:02;;;;;;;11.27;9.18;;;12.30;96.00;;;;;;5068858;28;20052;-77
2021/05/01 12:34:50;;;;;;;13.40;8.45;;;12.30;96.60;;;;;;5069693;28;20048;-74
2021/05/01 12:37:19;;;;;;;9.90;8.00;;;12.30;96.00;;;;;;5035337;28;20662;-76
2021/05/01 12:39:47;;;;;;;11.02;9.85;;;12.40;96.40;;;;;;5053133;28;20048;-76
2021/05/01 12:42:40;;;;;;;12.43;11.10;;;12.50;95.80;;;;;;5050281;28;20059;-76
2021/05/01 12:45:40;;;;;;;13.73;10.68;;;12.50;95.00;;;;;;5067670;28;20052;-76
2021/05/01 12:48:07;;;;;;;14.63;10.65;;;12.50;94.40;;;;;;5009346;28;20497;-77
2021/05/01 12:50:36;;;;;;;9.85;8.82;;;12.60;95.50;;;;;;5052720;28;20049;-80
2021/05/01 12:53:29;;;;;;;11.65;9.15;;;12.60;96.20;;;;;;5035374;28;20057;-80
2021/05/01 12:56:17;;;;;;;10.55;8.75;;;12.70;95.40;;;;;;5034098;28;20402;-80
2021/05/01 12:58:45;;;;;;;10.35;9.25;;;12.90;95.50;;;;;;5042690;28;20047;-80
2021/05/01 13:01:27;;;;;;;13.70;8.98;;;12.90;94.40;;;;;;5055003;28;20056;-80
2021/05/01 13:04:21;;;;;;;9.02;8.15;;;13.00;95.00;;;;;;5054199;28;20055;-81
2021/05/01 13:07:00;;;;;;;13.70;10.40;;;13.10;94.40;;;;;;5054062;28;20029;-80
2021/05/01 13:09:35;;;;;;;10.52;8.80;;;13.00;94.60;;;;;;5072382;28;20059;-81
2021/05/01 13:12:13;;;;;;;12.10;9.10;;;12.90;94.70;;;;;;5071817;28;20445;-81
2021/05/01 13:14:47;;;;;;;10.63;8.95;;;12.90;94.90;;;;;;5071974;28;20040;-79
2021/05/01 13:17:37;;;;;;;13.07;10.50;;;12.80;94.90;;;;;;5071992;28;20044;-79
2021/05/01 13:20:13;;;;;;;10.18;8.82;;;12.60;95.50;;;;;;5054532;28;20046;-79
2021/05/01 13:22:48;;;;;;;11.18;9.25;;;12.60;95.20;;;;;;5072844;28;20049;-79
2021/05/01 13:25:26;;;;;;;9.55;8.27;;;12.60;95.10;;;;;;5055267;28;20397;-79
2021/05/01 13:27:55;;;;;;;13.00;9.55;;;12.60;95.60;;;;;;5071677;28;20095;-79
2021/05/01 13:30:29;;;;;;;9.82;8.85;;;12.70;95.20;;;;;;5072358;28;20059;-79
2021/05/01 13:33:01;;;;;;;10.77;8.60;;;12.70;95.90;;;;;;5062562;28;20053;-79
2021/05/01 13:35:30;;;;;;;11.63;9.85;;;12.70;95.40;;;;;;5059687;28;20045;-79
2021/05/01 13:37:58;;;;;;;10.05;8.50;;;12.70;95.70;;;;;;5073014;28;20048;-78
2021/05/01 13:40:36;;;;;;;21.83;12.07;;;12.80;95.10;;;;;;5072491;28;20052;-79
2021/05/01 13:43:10;;;;;;;12.70;9.85;;;12.90;95.00;;;;;;5072621;28;20489;-79
2021/05/01 13:45:50;;;;;;;10.40;9.30;;;12.90;95.30;;;;;;5071932;28;20049;-79
2021/05/01 13:48:19;;;;;;;14.23;11.43;;;12.80;94.90;;;;;;5070552;28;20385;-79
2021/05/01 13:50:49;;;;;;;14.15;10.73;;;12.80;95.70;;;;;;5071814;28;20036;-79
2021/05/01 13:53:22;;;;;;;12.75;9.93;;;12.80;95.70;;;;;;5072904;28;20064;-80
2021/05/01 13:55:50;;;;;;;14.98;12.30;;;12.70;95.40;;;;;;5054475;28;20056;-79
2021/05/01 13:58:18;;;;;;;16.10;11.27;;;12.60;96.50;;;;;;5049442;28;20052;-74
2021/05/01 14:00:51;;;;;;;12.27;10.43;;;12.50;97.10;;;;;;5071297;28;20060;-75
2021/05/01 14:03:23;;;;;;;14.48;11.23;;;12.50;96.10;;;;;;5071428;28;20044;-75
2021/05/01 14:05:56;;;;;;;11.43;9.85;;;12.50;96.90;;;;;;5071098;28;20059;-74
2021/05/01 14:08:24;;;;;;;13.18;10.88;;;12.60;96.80;;;;;;5071602;28;20398;-75
2021/05/01 14:10:54;;;;;;;14.63;12.93;;;12.60;97.60;;;;;;5052281;28;20040;-76
2021/05/01 14:13:32;;;;;;;15.90;13.10;;;12.60;97.50;;;;;;5070678;28;20490;-74
2021/05/01 14:16:13;;;;;;;16.63;12.27;;;12.50;97.10;;;;;;5051951;28;20035;-77
2021/05/01 14:18:41;;;;;;;18.42;15.43;;;12.40;97.80;;;;;;5052813;28;20047;-76
2021/05/01 14:21:10;;;;;;;14.23;11.88;;;12.30;98.70;;;;;;5051870;28;20406;-76
2021/05/01 14:23:39;;;;;;;19.10;12.57;;;12.20;99.10;;;;;;5050994;28;20758;-74
2021/05/01 14:26:14;;;;;;;17.83;13.48;;;12.20;98.80;;;;;;5050993;28;20053;-77
2021/05/01 14:28:42;;;;;;;21.95;13.75;;;12.20;98.80;;;;;;5050537;28;20498;-74
2021/05/01 14:31:18;;;;;;;17.55;13.52;;;12.20;98.90;;;;;;5050485;28;20041;-75
2021/05/01 14:33:58;;;;;;;18.45;14.88;;;12.20;99.80;;;;;;5050715;28;20498;-75
2021/05/01 14:36:27;;;;;;;19.77;14.15;;;12.10;99.90;;;;;;5066199;28;20501;-75
2021/05/01 14:38:54;;;;;;;20.15;15.10;;;12.20;99.60;;;;;;5069865;28;20040;-75
2021/05/01 14:41:24;;;;;;;21.88;13.98;;;12.10;99.20;;;;;;5070945;28;20056;-75
2021/05/01 14:43:52;;;;;;;18.60;14.38;;;12.00;99.90;;;;;;5070435;28;20409;-75
2021/05/01 14:46:21;;;;;;;21.52;14.52;;;12.10;99.90;;;;;;5035280;28;20055;-75
2021/05/01 14:49:09;;;;;;;18.45;14.00;;;12.20;99.90;;;;;;5071425;28;20068;-74
2021/05/01 14:51:44;;;;;;;19.13;13.15;;;12.20;99.70;;;;;;5070271;28;20052;-75
2021/05/01 14:54:42;;;;;;;18.42;14.30;;;12.30;99.80;;;;;;5071695;28;20060;-75
2021/05/01 14:57:17;;;;;;;19.98;14.95;;;12.30;99.60;;;;;;5035591;28;20421;-74
2021/05/01 14:59:58;;;;;;;21.98;16.05;;;12.40;99.90;;;;;;5050718;28;20048;-74
2021/05/01 15:02:45;;;;;;;20.55;12.68;;;12.40;99.50;;;;;;5050482;28;20599;-74
2021/05/01 15:05:16;;;;;;;27.02;17.95;;;12.40;99.90;;;;;;5050356;28;20049;-74
2021/05/01 15:07:46;;;;;;;19.00;13.82;;;12.40;98.90;;;;;;5051076;28;20124;-74
2021/05/01 15:10:19;;;;;;;28.08;17.60;;;12.40;99.90;;;;;;5051557;28;20132;-74
2021/05/01 15:12:58;;;;;;;29.27;16.98;;;12.40;99.90;;;;;;5050516;28;20041;-74
2021/05/01 15:15:32;;;;;;;22.95;15.60;;;12.40;99.80;;;;;;5050927;28;20366;-75
2021/05/01 15:18:04;;;;;;;25.08;15.80;;;12.30;99.00;;;;;;5070042;28;20486;-75
2021/05/01 15:20:49;;;;;;;22.77;16.05;;;12.20;98.70;;;;;;5068071;28;20045;-74
2021/05/01 15:23:31;;;;;;;21.35;14.50;;;12.00;99.70;;;;;;5070549;28;20404;-74
2021/05/01 15:26:16;;;;;;;17.85;13.75;;;11.80;99.90;;;;;;5070530;28;20052;-74
2021/05/01 15:28:46;;;;;;;15.73;12.70;;;11.80;99.90;;;;;;5070201;28;20045;-74
2021/05/01 15:31:13;;;;;;;19.33;13.68;;;11.60;99.90;;;;;;5070008;28;20045;-74
2021/05/01 15:33:42;;;;;;;18.00;13.32;;;11.60;99.90;;;;;;5054253;28;20383;-74
2021/05/01 15:36:14;;;;;;;18.00;13.70;;;11.50;99.90;;;;;;5063017;28;20040;-74
2021/05/01 15:38:42;;;;;;;17.98;13.23;;;11.40;99.90;;;;;;5070520;28;20478;-75
2021/05/01 15:41:10;;;;;;;16.52;13.48;;;11.40;99.90;;;;;;5070786;28;20063;-74
2021/05/01 15:43:40;;;;;;;19.15;13.20;;;11.40;99.90;;;;;;5070281;28;20044;-73
2021/05/01 15:46:16;;;;;;;17.85;14.32;;;11.40;99.90;;;;;;5069405;28;20048;-74
2021/05/01 15:48:45;;;;;;;18.05;12.07;;;11.30;99.90;;;;;;5069742;28;20044;-74
2021/05/01 15:51:13;;;;;;;18.98;13.93;;;11.30;99.90;;;;;;5069892;28;20052;-74
2021/05/01 15:53:41;;;;;;;16.85;12.98;;;11.30;99.90;;;;;;5070836;28;20057;-74
2021/05/01 15:56:08;;;;;;;18.30;13.45;;;11.30;99.90;;;;;;5069517;28;20569;-74
2021/05/01 15:58:36;;;;;;;14.88;12.55;;;11.40;99.90;;;;;;5069629;28;20056;-74
2021/05/01 16:01:04;;;;;;;19.88;15.77;;;11.40;99.90;;;;;;5063808;28;20056;-74
2021/05/01 16:03:34;;;;;;;17.35;14.07;;;11.40;99.90;;;;;;5068323;28;20055;-74
2021/05/01 16:06:01;;;;;;;18.98;13.20;;;11.40;99.90;;;;;;5069024;28;20783;-73
2021/05/01 16:08:29;;;;;;;19.05;13.90;;;11.40;99.90;;;;;;5071076;28;20404;-74
2021/05/01 16:10:56;;;;;;;17.55;14.38;;;11.30;99.90;;;;;;5071036;28;20071;-74
2021/05/01 16:13:24;;;;;;;16.95;13.60;;;11.30;99.90;;;;;;5073898;28;20049;-74
2021/05/01 16:15:51;;;;;;;19.58;12.98;;;11.30;99.90;;;;;;5071732;28;20402;-74